Airport View

Enter AWOS ICAO identifier for current METAR.

ex. KFNL

KEDC 051400Z AUTO 23008KT 10SM CLR 27/22 A3003 RMK AO2

5 Aug 2020 14:02

Frequency: 118.825

Phone: 512-616-2967

Other Area AWOS: KATT - KAUS - KGTU - KRYW

TAF KAUS 051120Z 0512/0618 20006KT P6SM FEW012 FM051700 17012KT P6SM FEW060 FM060400 18006KT P6SM SKC FM061100 20007KT P6SM BKN012 FM061500 20007KT P6SM SCT030